GRL2341 BGGH-BGSF
Flight info
| Callsign | GRL2341 |
|---|---|
| Flight time | 0h 40m |
| Altitude | 23000 |
| Route | DODFO2A DODFO DCT SUBAX DCT OSWIL DCT TESVO |
| Aircraft | DH8D/M-SDE2E3FGRY/H |
Departure
| Time | 2026-04-26 10:45 |
|---|---|
| Airport | Nuuk International Airport (BGGH) |
Arrival
| Time | 2026-04-26 11:25 |
|---|---|
| Airport | Kangerlussuaq International Airport (BGSF) |
| Time | Latitude | Longitude | Altitude | Speed | Heading |
|---|---|---|---|---|---|
| 2026-04-26 10:30 | 64.19128 | -51.67363 | 267 ft | 0 kts | 163° |
| 2026-04-26 10:39 | 64.19128 | -51.67362 | 267 ft | 1 kts | 163° |
| 2026-04-26 10:40 | 64.19114 | -51.67357 | 267 ft | 3 kts | 187° |
| 2026-04-26 10:40 | 64.19085 | -51.67420 | 267 ft | 7 kts | 241° |
| 2026-04-26 10:40 | 64.19062 | -51.67540 | 267 ft | 8 kts | 244° |
| 2026-04-26 10:40 | 64.19008 | -51.67621 | 267 ft | 11 kts | 198° |
| 2026-04-26 10:41 | 64.18918 | -51.67686 | 267 ft | 14 kts | 197° |
| 2026-04-26 10:41 | 64.18828 | -51.67751 | 268 ft | 12 kts | 197° |
| 2026-04-26 10:41 | 64.18740 | -51.67811 | 267 ft | 12 kts | 198° |
| 2026-04-26 10:41 | 64.18661 | -51.67872 | 267 ft | 13 kts | 198° |
| 2026-04-26 10:42 | 64.18623 | -51.68002 | 267 ft | 10 kts | 294° |
| 2026-04-26 10:42 | 64.18642 | -51.68132 | 267 ft | 7 kts | 277° |
| 2026-04-26 10:42 | 64.18634 | -51.68224 | 267 ft | 5 kts | 238° |
| 2026-04-26 10:42 | 64.18587 | -51.68287 | 267 ft | 10 kts | 199° |
| 2026-04-26 10:43 | 64.18504 | -51.68349 | 267 ft | 14 kts | 198° |
| 2026-04-26 10:43 | 64.18402 | -51.68427 | 267 ft | 16 kts | 198° |
| 2026-04-26 10:43 | 64.18288 | -51.68513 | 267 ft | 17 kts | 189° |
| 2026-04-26 10:43 | 64.18181 | -51.68511 | 267 ft | 11 kts | 198° |
| 2026-04-26 10:44 | 64.18167 | -51.68588 | 267 ft | 4 kts | 330° |
| 2026-04-26 10:44 | 64.18200 | -51.68579 | 267 ft | 0 kts | 18° |
| 2026-04-26 10:44 | 64.18205 | -51.68575 | 267 ft | 11 kts | 17° |
| 2026-04-26 10:44 | 64.18609 | -51.68285 | 267 ft | 104 kts | 17° |
| 2026-04-26 10:45 | 64.19456 | -51.67568 | 466 ft | 142 kts | 16° |
| 2026-04-26 10:45 | 64.20365 | -51.66673 | 1215 ft | 149 kts | 18° |
| 2026-04-26 10:45 | 64.21380 | -51.66514 | 1919 ft | 157 kts | 348° |
| 2026-04-26 10:45 | 64.22456 | -51.67323 | 2581 ft | 172 kts | 339° |
| 2026-04-26 10:46 | 64.23521 | -51.68483 | 3427 ft | 176 kts | 335° |
| 2026-04-26 10:46 | 64.24609 | -51.69765 | 4239 ft | 179 kts | 334° |
| 2026-04-26 10:46 | 64.25705 | -51.71078 | 5096 ft | 182 kts | 333° |
| 2026-04-26 10:46 | 64.26826 | -51.72426 | 5860 ft | 187 kts | 333° |
| 2026-04-26 10:47 | 64.27976 | -51.73812 | 6654 ft | 192 kts | 332° |
| 2026-04-26 10:47 | 64.29147 | -51.75220 | 7481 ft | 196 kts | 332° |
| 2026-04-26 10:47 | 64.30419 | -51.76754 | 7859 ft | 219 kts | 331° |
| 2026-04-26 10:47 | 64.31835 | -51.78467 | 8089 ft | 242 kts | 331° |
| 2026-04-26 10:48 | 64.33288 | -51.80225 | 9051 ft | 234 kts | 331° |
| 2026-04-26 10:48 | 64.34779 | -51.81608 | 9849 ft | 236 kts | 347° |
| 2026-04-26 10:48 | 64.36433 | -51.81656 | 10550 ft | 243 kts | 359° |
| 2026-04-26 10:48 | 64.38128 | -51.81377 | 11239 ft | 249 kts | 359° |
| 2026-04-26 10:49 | 64.39837 | -51.81089 | 12035 ft | 250 kts | 359° |
| 2026-04-26 10:49 | 64.41554 | -51.80803 | 12735 ft | 252 kts | 359° |
| 2026-04-26 10:49 | 64.43306 | -51.80516 | 13394 ft | 257 kts | 358° |
| 2026-04-26 10:49 | 64.45084 | -51.80228 | 14060 ft | 262 kts | 358° |
| 2026-04-26 10:50 | 64.46903 | -51.79934 | 14797 ft | 262 kts | 358° |
| 2026-04-26 10:50 | 64.48718 | -51.79646 | 15410 ft | 266 kts | 358° |
| 2026-04-26 10:50 | 64.50586 | -51.79350 | 15978 ft | 273 kts | 357° |
| 2026-04-26 10:50 | 64.52544 | -51.79054 | 16066 ft | 293 kts | 358° |
| 2026-04-26 10:51 | 64.54581 | -51.78730 | 16529 ft | 300 kts | 358° |
| 2026-04-26 10:51 | 64.58727 | -51.78068 | 17669 ft | 301 kts | 358° |
| 2026-04-26 10:51 | 64.60836 | -51.77734 | 18144 ft | 305 kts | 358° |
| 2026-04-26 10:52 | 64.62933 | -51.77400 | 18496 ft | 312 kts | 357° |
| 2026-04-26 10:52 | 64.65095 | -51.77054 | 19030 ft | 314 kts | 357° |
| 2026-04-26 10:52 | 64.67268 | -51.76708 | 19564 ft | 315 kts | 357° |
| 2026-04-26 10:52 | 64.69443 | -51.76362 | 20026 ft | 315 kts | 357° |
| 2026-04-26 10:53 | 64.71650 | -51.76008 | 20397 ft | 320 kts | 357° |
| 2026-04-26 10:53 | 64.73820 | -51.75657 | 20942 ft | 320 kts | 357° |
| 2026-04-26 10:53 | 64.76031 | -51.75304 | 21468 ft | 318 kts | 357° |
| 2026-04-26 10:54 | 64.80431 | -51.74593 | 22399 ft | 318 kts | 357° |
| 2026-04-26 10:54 | 64.82614 | -51.74244 | 22852 ft | 319 kts | 356° |
| 2026-04-26 10:54 | 64.84883 | -51.73892 | 22975 ft | 331 kts | 357° |
| 2026-04-26 10:54 | 64.87200 | -51.73529 | 22993 ft | 338 kts | 357° |
| 2026-04-26 10:55 | 64.89513 | -51.73156 | 22985 ft | 330 kts | 357° |
| 2026-04-26 10:55 | 64.91776 | -51.72794 | 22990 ft | 327 kts | 357° |
| 2026-04-26 10:55 | 64.94025 | -51.72440 | 22992 ft | 325 kts | 356° |
| 2026-04-26 10:55 | 64.96272 | -51.72087 | 23007 ft | 324 kts | 357° |
| 2026-04-26 10:56 | 64.98498 | -51.71734 | 22994 ft | 322 kts | 357° |
| 2026-04-26 10:56 | 65.00718 | -51.71380 | 23000 ft | 321 kts | 357° |
| 2026-04-26 10:56 | 65.02936 | -51.71024 | 22991 ft | 321 kts | 357° |
| 2026-04-26 10:56 | 65.05151 | -51.70666 | 22989 ft | 320 kts | 357° |
| 2026-04-26 10:57 | 65.07377 | -51.70305 | 22985 ft | 320 kts | 357° |
| 2026-04-26 10:57 | 65.09578 | -51.69948 | 22975 ft | 321 kts | 357° |
| 2026-04-26 10:57 | 65.11796 | -51.69586 | 22969 ft | 321 kts | 357° |
| 2026-04-26 10:57 | 65.14009 | -51.69224 | 22972 ft | 321 kts | 357° |
| 2026-04-26 10:58 | 65.16233 | -51.68859 | 22965 ft | 322 kts | 357° |
| 2026-04-26 10:58 | 65.18456 | -51.68494 | 22959 ft | 322 kts | 357° |
| 2026-04-26 10:58 | 65.20680 | -51.68126 | 22948 ft | 322 kts | 357° |
| 2026-04-26 10:58 | 65.22915 | -51.67757 | 22949 ft | 322 kts | 357° |
| 2026-04-26 10:59 | 65.25134 | -51.67390 | 22934 ft | 323 kts | 357° |
| 2026-04-26 10:59 | 65.27368 | -51.67019 | 22933 ft | 322 kts | 357° |
| 2026-04-26 10:59 | 65.29596 | -51.66649 | 22935 ft | 322 kts | 357° |
| 2026-04-26 10:59 | 65.31817 | -51.66279 | 22933 ft | 323 kts | 358° |
| 2026-04-26 11:00 | 65.34044 | -51.65908 | 22933 ft | 323 kts | 357° |
| 2026-04-26 11:00 | 65.36280 | -51.65535 | 22929 ft | 323 kts | 358° |
| 2026-04-26 11:00 | 65.38522 | -51.65160 | 22926 ft | 323 kts | 358° |
| 2026-04-26 11:00 | 65.40767 | -51.64783 | 22924 ft | 324 kts | 358° |
| 2026-04-26 11:01 | 65.43005 | -51.64407 | 22921 ft | 324 kts | 358° |
| 2026-04-26 11:01 | 65.45215 | -51.64035 | 22916 ft | 324 kts | 358° |
| 2026-04-26 11:01 | 65.47478 | -51.63654 | 22914 ft | 324 kts | 358° |
| 2026-04-26 11:01 | 65.49697 | -51.63279 | 22910 ft | 325 kts | 358° |
| 2026-04-26 11:02 | 65.51942 | -51.62899 | 22906 ft | 325 kts | 358° |
| 2026-04-26 11:02 | 65.54197 | -51.62517 | 22909 ft | 325 kts | 358° |
| 2026-04-26 11:02 | 65.56451 | -51.62134 | 22922 ft | 325 kts | 358° |
| 2026-04-26 11:02 | 65.58689 | -51.61754 | 22944 ft | 324 kts | 358° |
| 2026-04-26 11:03 | 65.60911 | -51.61377 | 22949 ft | 324 kts | 358° |
| 2026-04-26 11:03 | 65.63165 | -51.60991 | 22959 ft | 325 kts | 358° |
| 2026-04-26 11:03 | 65.65415 | -51.60604 | 22961 ft | 325 kts | 358° |
| 2026-04-26 11:03 | 65.67660 | -51.60218 | 22977 ft | 326 kts | 358° |
| 2026-04-26 11:04 | 65.69906 | -51.59832 | 22988 ft | 326 kts | 358° |
| 2026-04-26 11:04 | 65.72171 | -51.59443 | 23008 ft | 326 kts | 358° |
| 2026-04-26 11:04 | 65.74432 | -51.59054 | 23024 ft | 327 kts | 358° |
| 2026-04-26 11:04 | 65.76672 | -51.58668 | 23029 ft | 327 kts | 358° |
| 2026-04-26 11:05 | 65.78928 | -51.58279 | 23019 ft | 328 kts | 358° |
| 2026-04-26 11:05 | 65.81231 | -51.57881 | 22999 ft | 329 kts | 358° |
| 2026-04-26 11:05 | 65.83509 | -51.57488 | 22963 ft | 331 kts | 358° |
| 2026-04-26 11:05 | 65.85770 | -51.57094 | 22879 ft | 325 kts | 358° |
| 2026-04-26 11:06 | 65.88044 | -51.56703 | 22326 ft | 330 kts | 359° |
| 2026-04-26 11:06 | 65.90296 | -51.56311 | 22176 ft | 325 kts | 359° |
| 2026-04-26 11:06 | 65.92516 | -51.55927 | 21909 ft | 324 kts | 359° |
| 2026-04-26 11:06 | 65.94778 | -51.55535 | 21577 ft | 325 kts | 359° |
| 2026-04-26 11:07 | 65.97021 | -51.55146 | 21214 ft | 327 kts | 359° |
| 2026-04-26 11:07 | 65.99262 | -51.54755 | 20843 ft | 327 kts | 359° |
| 2026-04-26 11:07 | 66.01543 | -51.54356 | 20476 ft | 327 kts | 359° |
| 2026-04-26 11:07 | 66.03783 | -51.53963 | 20107 ft | 327 kts | 359° |
| 2026-04-26 11:08 | 66.06049 | -51.53565 | 19725 ft | 327 kts | 360° |
| 2026-04-26 11:08 | 66.08312 | -51.53165 | 19329 ft | 327 kts | 0° |
| 2026-04-26 11:08 | 66.10551 | -51.52770 | 18935 ft | 326 kts | 0° |
| 2026-04-26 11:08 | 66.12797 | -51.52372 | 18535 ft | 325 kts | 0° |
| 2026-04-26 11:09 | 66.15029 | -51.51976 | 18138 ft | 324 kts | 0° |
| 2026-04-26 11:09 | 66.17284 | -51.51575 | 17728 ft | 324 kts | 0° |
| 2026-04-26 11:09 | 66.19521 | -51.51177 | 17321 ft | 323 kts | 1° |
| 2026-04-26 11:09 | 66.21733 | -51.50783 | 16921 ft | 322 kts | 1° |
| 2026-04-26 11:10 | 66.23950 | -51.50386 | 16512 ft | 320 kts | 1° |
| 2026-04-26 11:10 | 66.26138 | -51.49995 | 16117 ft | 319 kts | 1° |
| 2026-04-26 11:10 | 66.28342 | -51.49600 | 15738 ft | 318 kts | 1° |
| 2026-04-26 11:10 | 66.30550 | -51.49204 | 15349 ft | 316 kts | 1° |
| 2026-04-26 11:11 | 66.32728 | -51.48812 | 14964 ft | 315 kts | 1° |
| 2026-04-26 11:11 | 66.34894 | -51.48422 | 14566 ft | 314 kts | 1° |
| 2026-04-26 11:11 | 66.37033 | -51.48037 | 14176 ft | 313 kts | 1° |
| 2026-04-26 11:11 | 66.39211 | -51.47643 | 13774 ft | 311 kts | 1° |
| 2026-04-26 11:12 | 66.41363 | -51.47253 | 13370 ft | 310 kts | 2° |
| 2026-04-26 11:12 | 66.43485 | -51.46868 | 12970 ft | 309 kts | 2° |
| 2026-04-26 11:12 | 66.45601 | -51.46484 | 12587 ft | 308 kts | 2° |
| 2026-04-26 11:12 | 66.47742 | -51.46095 | 12182 ft | 306 kts | 2° |
| 2026-04-26 11:13 | 66.49841 | -51.45712 | 11773 ft | 305 kts | 2° |
| 2026-04-26 11:13 | 66.51945 | -51.45327 | 11371 ft | 303 kts | 2° |
| 2026-04-26 11:13 | 66.54036 | -51.44945 | 10962 ft | 300 kts | 2° |
| 2026-04-26 11:13 | 66.56052 | -51.44578 | 10560 ft | 291 kts | 2° |
| 2026-04-26 11:14 | 66.58033 | -51.44212 | 10144 ft | 281 kts | 2° |
| 2026-04-26 11:14 | 66.59956 | -51.43862 | 9721 ft | 272 kts | 2° |
| 2026-04-26 11:14 | 66.61807 | -51.43533 | 9290 ft | 264 kts | 2° |
| 2026-04-26 11:14 | 66.63586 | -51.43214 | 8880 ft | 256 kts | 2° |
| 2026-04-26 11:15 | 66.65324 | -51.42901 | 8547 ft | 248 kts | 2° |
| 2026-04-26 11:15 | 66.67007 | -51.42595 | 8209 ft | 240 kts | 2° |
| 2026-04-26 11:15 | 66.68653 | -51.42295 | 7875 ft | 234 kts | 2° |
| 2026-04-26 11:15 | 66.70246 | -51.42003 | 7546 ft | 229 kts | 2° |
| 2026-04-26 11:16 | 66.71824 | -51.41712 | 7206 ft | 224 kts | 2° |
| 2026-04-26 11:16 | 66.73347 | -51.41430 | 6868 ft | 220 kts | 2° |
| 2026-04-26 11:16 | 66.74862 | -51.41153 | 6577 ft | 215 kts | 2° |
| 2026-04-26 11:16 | 66.76356 | -51.40865 | 6302 ft | 217 kts | 3° |
| 2026-04-26 11:17 | 66.77855 | -51.40573 | 6028 ft | 218 kts | 3° |
| 2026-04-26 11:17 | 66.79347 | -51.40288 | 5750 ft | 218 kts | 2° |
| 2026-04-26 11:17 | 66.80875 | -51.39995 | 5480 ft | 219 kts | 3° |
| 2026-04-26 11:17 | 66.82378 | -51.39715 | 5210 ft | 218 kts | 4° |
| 2026-04-26 11:18 | 66.83884 | -51.39431 | 4941 ft | 218 kts | 3° |
| 2026-04-26 11:18 | 66.85381 | -51.39127 | 4666 ft | 218 kts | 6° |
| 2026-04-26 11:18 | 66.86772 | -51.37723 | 4357 ft | 219 kts | 39° |
| 2026-04-26 11:18 | 66.87651 | -51.34573 | 4118 ft | 219 kts | 58° |
| 2026-04-26 11:19 | 66.88384 | -51.31221 | 3847 ft | 219 kts | 58° |
| 2026-04-26 11:19 | 66.89099 | -51.27864 | 3671 ft | 213 kts | 57° |
| 2026-04-26 11:19 | 66.89805 | -51.24610 | 3546 ft | 208 kts | 57° |
| 2026-04-26 11:19 | 66.90495 | -51.21382 | 3391 ft | 204 kts | 57° |
| 2026-04-26 11:20 | 66.91165 | -51.18263 | 3253 ft | 201 kts | 58° |
| 2026-04-26 11:20 | 66.91603 | -51.16221 | 3159 ft | 199 kts | 57° |
| 2026-04-26 11:20 | 66.92480 | -51.12103 | 2958 ft | 196 kts | 57° |
| 2026-04-26 11:20 | 66.93128 | -51.09111 | 2810 ft | 192 kts | 55° |
| 2026-04-26 11:21 | 66.93765 | -51.06132 | 2667 ft | 189 kts | 56° |
| 2026-04-26 11:21 | 66.94389 | -51.03241 | 2528 ft | 186 kts | 55° |
| 2026-04-26 11:21 | 66.95010 | -51.00357 | 2459 ft | 187 kts | 56° |
| 2026-04-26 11:21 | 66.95638 | -50.97426 | 2432 ft | 182 kts | 56° |
| 2026-04-26 11:22 | 66.96204 | -50.94673 | 2337 ft | 162 kts | 57° |
| 2026-04-26 11:22 | 66.96699 | -50.92296 | 2176 ft | 151 kts | 55° |
| 2026-04-26 11:22 | 66.97203 | -50.89969 | 1809 ft | 148 kts | 56° |
| 2026-04-26 11:22 | 66.97665 | -50.87671 | 1733 ft | 147 kts | 57° |
| 2026-04-26 11:23 | 66.98132 | -50.85355 | 1536 ft | 148 kts | 57° |
| 2026-04-26 11:23 | 66.98579 | -50.83181 | 1291 ft | 128 kts | 54° |
| 2026-04-26 11:23 | 66.99004 | -50.81320 | 1171 ft | 117 kts | 52° |
| 2026-04-26 11:23 | 66.99400 | -50.79578 | 868 ft | 109 kts | 54° |
| 2026-04-26 11:24 | 66.99758 | -50.77872 | 762 ft | 112 kts | 55° |
| 2026-04-26 11:24 | 67.00139 | -50.76139 | 586 ft | 111 kts | 50° |
| 2026-04-26 11:24 | 67.00535 | -50.74404 | 294 ft | 113 kts | 56° |
| 2026-04-26 11:24 | 67.00899 | -50.72651 | 200 ft | 104 kts | 57° |
| 2026-04-26 11:25 | 67.01193 | -50.71458 | 196 ft | 57 kts | 64° |
| 2026-04-26 11:25 | 67.01288 | -50.70923 | 207 ft | 9 kts | 65° |
| 2026-04-26 11:25 | 67.01306 | -50.70820 | 211 ft | 3 kts | 64° |
| 2026-04-26 11:25 | 67.01319 | -50.70747 | 213 ft | 10 kts | 65° |
| 2026-04-26 11:26 | 67.01344 | -50.70560 | 215 ft | 11 kts | 79° |
| 2026-04-26 11:26 | 67.01344 | -50.70531 | 214 ft | 8 kts | 92° |
| 2026-04-26 11:26 | 67.01343 | -50.70510 | 214 ft | 1 kts | 103° |
| 2026-04-26 11:26 | 67.01337 | -50.70478 | 212 ft | 11 kts | 121° |
| 2026-04-26 11:27 | 67.01258 | -50.70382 | 192 ft | 14 kts | 165° |
| 2026-04-26 11:27 | 67.01173 | -50.70325 | 173 ft | 6 kts | 165° |
| 2026-04-26 11:27 | 67.01125 | -50.70305 | 164 ft | 14 kts | 190° |
| 2026-04-26 11:27 | 67.01045 | -50.70552 | 156 ft | 24 kts | 244° |
| 2026-04-26 11:28 | 67.00983 | -50.70819 | 153 ft | 13 kts | 232° |
| 2026-04-26 11:28 | 67.00929 | -50.70870 | 146 ft | 6 kts | 185° |
| 2026-04-26 11:28 | 67.00880 | -50.70821 | 136 ft | 5 kts | 146° |
| 2026-04-26 11:28 | 67.00877 | -50.70816 | 136 ft | 0 kts | 148° |